Center Grove, Arkansas
Current Conditions -  °F | °C
As of 6:53 PM on Friday 19 Dec 2014 (Local Time) from KPBF Reporting Station
Overcast Overcast  
Wind Chill: 38°   Ceiling: 8000
Heat Index: 43°   Visibility: 10mi
Dew Point: 37°   Wind: 9mph
Humidity: 80%   Direction: 20°NNE
Pressure: 30.22"   Gusts: NA
Location:  34.3151°N, 92.3357°W
Report Text: KPBF 200053Z AUTO 02008KT 10SM OVC080 06/03 A3022 RMK AO2 SLP234 T00610028
Loading
Personal Weather Stations






























Interactive Weather Map New forecast layout! Learn more

10-Day Weather Forecast

Advertisements
Track Severe Weather on mobile